createdAt,value
2022-08-11T00:00:12.855Z,11.30
2022-08-11T00:02:46.296Z,11.38
2022-08-11T00:05:16.555Z,10.98
2022-08-11T00:07:50.342Z,10.88
2022-08-11T00:10:20.535Z,12.15
2022-08-11T00:12:57.419Z,13.10
2022-08-11T00:15:25.424Z,17.58
2022-08-11T00:17:59.125Z,12.10
2022-08-11T00:20:32.601Z,13.50
2022-08-11T00:23:07.534Z,21.60
2022-08-11T00:25:46.570Z,13.60
2022-08-11T00:28:27.022Z,14.05
2022-08-11T00:30:55.783Z,13.32
2022-08-11T00:33:44.196Z,16.05
2022-08-11T00:36:14.724Z,14.80
2022-08-11T00:38:43.588Z,13.27
2022-08-11T00:41:15.537Z,13.43
2022-08-11T00:43:48.507Z,14.20
2022-08-11T00:46:23.892Z,15.02
2022-08-11T00:49:13.587Z,15.25
2022-08-11T00:52:18.769Z,14.73
2022-08-11T00:55:33.279Z,14.90
2022-08-11T00:58:22.505Z,14.45
2022-08-11T01:01:14.135Z,14.30
2022-08-11T01:04:13.133Z,13.57
2022-08-11T01:07:16.426Z,12.05
2022-08-11T01:10:51.276Z,12.45
2022-08-11T01:13:36.511Z,11.10
2022-08-11T01:16:24.506Z,12.15
2022-08-11T01:20:38.481Z,9.85
2022-08-11T01:22:28.669Z,10.35
2022-08-11T01:25:18.930Z,8.82
2022-08-11T01:28:30.383Z,10.52
2022-08-11T01:31:18.095Z,12.55
2022-08-11T01:34:06.653Z,9.47
2022-08-11T01:36:56.598Z,8.57
2022-08-11T01:39:38.589Z,12.43
2022-08-11T01:42:32.935Z,9.18
2022-08-11T01:45:09.068Z,8.77
2022-08-11T01:48:02.545Z,8.38
2022-08-11T01:50:47.597Z,8.40
2022-08-11T01:53:50.576Z,7.55
2022-08-11T01:56:57.056Z,8.02
2022-08-11T01:59:26.315Z,7.78
2022-08-11T02:02:09.767Z,8.18
2022-08-11T02:05:07.000Z,8.23
2022-08-11T02:07:52.810Z,8.68
2022-08-11T02:10:58.206Z,8.18
2022-08-11T02:13:55.583Z,6.90
2022-08-11T02:17:09.693Z,8.40
2022-08-11T02:20:19.752Z,8.20
2022-08-11T02:24:03.923Z,8.00
2022-08-11T02:26:07.831Z,7.55
2022-08-11T02:28:49.910Z,9.07
2022-08-11T02:32:25.553Z,7.80
2022-08-11T02:34:59.899Z,7.63
2022-08-11T02:37:33.252Z,8.32
2022-08-11T02:40:00.562Z,8.02
2022-08-11T02:42:52.726Z,9.77
2022-08-11T02:45:19.911Z,7.00
2022-08-11T02:48:17.192Z,7.68
2022-08-11T02:51:04.719Z,7.80
2022-08-11T02:53:56.456Z,8.45
2022-08-11T02:57:02.310Z,7.45
2022-08-11T02:59:50.187Z,8.55
2022-08-11T03:02:31.516Z,7.32
2022-08-11T03:05:10.661Z,7.32
2022-08-11T03:08:25.203Z,9.05
2022-08-11T03:11:20.480Z,5.90
2022-08-11T03:14:18.835Z,9.98
2022-08-11T03:17:03.408Z,12.20
2022-08-11T03:20:05.897Z,7.80
2022-08-11T03:22:59.674Z,7.68
2022-08-11T03:26:00.025Z,5.88
2022-08-11T03:28:43.494Z,7.95
2022-08-11T03:31:19.303Z,6.60
2022-08-11T03:37:16.148Z,6.70
2022-08-11T03:40:07.531Z,7.90
2022-08-11T03:42:39.734Z,7.88
2022-08-11T03:45:37.412Z,7.57
2022-08-11T03:48:15.997Z,6.70
2022-08-11T03:51:01.362Z,6.72
2022-08-11T03:53:42.856Z,7.20
2022-08-11T03:56:37.515Z,7.03
2022-08-11T03:59:28.830Z,7.10
2022-08-11T04:02:25.995Z,7.30
2022-08-11T04:05:26.502Z,6.32
2022-08-11T04:08:34.161Z,6.97
2022-08-11T04:11:10.404Z,7.97
2022-08-11T04:14:30.542Z,7.60
2022-08-11T04:17:22.645Z,7.88
2022-08-11T04:20:13.745Z,7.18
2022-08-11T04:23:08.243Z,6.90
2022-08-11T04:25:58.766Z,7.07
2022-08-11T04:28:51.445Z,7.32
2022-08-11T04:31:50.363Z,6.70
2022-08-11T04:34:42.336Z,6.90
2022-08-11T04:37:30.661Z,8.38
2022-08-11T04:40:11.108Z,7.93
2022-08-11T04:43:20.945Z,6.80
2022-08-11T04:46:13.655Z,7.03
2022-08-11T04:49:34.011Z,6.72
2022-08-11T04:52:52.605Z,8.90
2022-08-11T04:56:19.811Z,7.22
2022-08-11T04:59:10.990Z,6.10
2022-08-11T05:02:04.894Z,7.20
2022-08-11T05:05:08.031Z,6.47
2022-08-11T05:08:02.211Z,6.88
2022-08-11T05:11:08.270Z,8.05
2022-08-11T05:14:00.917Z,7.60
2022-08-11T05:17:01.755Z,6.82
2022-08-11T05:19:47.242Z,7.97
2022-08-11T05:22:36.175Z,8.15
2022-08-11T05:26:45.271Z,7.43
2022-08-11T05:28:35.630Z,7.85
2022-08-11T05:31:30.624Z,7.50
2022-08-11T05:34:21.544Z,7.60
2022-08-11T05:36:50.566Z,8.05
2022-08-11T05:39:42.849Z,7.47
2022-08-11T05:42:29.631Z,7.60
2022-08-11T05:45:22.361Z,10.48
2022-08-11T05:48:08.774Z,7.70
2022-08-11T05:53:46.230Z,7.65
2022-08-11T05:56:18.463Z,7.30
2022-08-11T05:58:49.287Z,8.88
2022-08-11T06:01:23.525Z,8.35
2022-08-11T06:04:11.694Z,8.60
2022-08-11T06:06:44.854Z,8.15
2022-08-11T06:09:14.612Z,9.05
2022-08-11T06:11:44.993Z,8.00
2022-08-11T06:14:13.328Z,8.13
2022-08-11T06:16:42.023Z,8.40
2022-08-11T06:19:10.417Z,8.70
2022-08-11T06:21:38.009Z,8.50
2022-08-11T06:24:12.230Z,9.32
2022-08-11T06:27:08.766Z,8.68
2022-08-11T06:29:38.084Z,9.23
2022-08-11T06:32:15.894Z,8.65
2022-08-11T06:35:03.127Z,8.63
2022-08-11T06:37:51.579Z,9.25
2022-08-11T06:40:28.155Z,16.97
2022-08-11T06:43:02.023Z,11.65
2022-08-11T06:46:05.849Z,9.68
2022-08-11T06:48:34.103Z,10.18
2022-08-11T06:51:13.699Z,9.55
2022-08-11T06:54:03.603Z,10.60
2022-08-11T06:57:28.994Z,10.43
2022-08-11T07:00:07.622Z,10.68
2022-08-11T07:02:43.245Z,10.30
2022-08-11T07:05:15.491Z,8.15
2022-08-11T07:08:35.539Z,9.88
2022-08-11T07:11:24.148Z,9.98
2022-08-11T07:14:20.247Z,14.00
2022-08-11T07:16:50.207Z,15.35
2022-08-11T07:19:45.410Z,11.75
2022-08-11T07:22:32.497Z,10.85
2022-08-11T07:25:27.668Z,11.82
2022-08-11T07:28:23.391Z,10.73
2022-08-11T07:31:01.375Z,9.90
2022-08-11T07:34:08.239Z,11.30
2022-08-11T07:36:29.224Z,10.40
2022-08-11T07:38:57.511Z,12.10
2022-08-11T07:41:25.859Z,12.90
2022-08-11T07:43:57.238Z,11.13
2022-08-11T07:46:43.139Z,13.18
2022-08-11T07:49:29.949Z,14.18
2022-08-11T07:52:15.287Z,11.35
2022-08-11T07:54:44.423Z,10.67
2022-08-11T07:57:59.464Z,11.00
2022-08-11T08:00:41.857Z,11.90
2022-08-11T08:03:28.115Z,11.57
2022-08-11T08:06:15.275Z,11.35
2022-08-11T08:09:20.096Z,13.13
2022-08-11T08:12:05.920Z,11.75
2022-08-11T08:14:52.696Z,12.18
2022-08-11T08:17:40.261Z,12.68
2022-08-11T08:20:11.583Z,11.75
2022-08-11T08:22:39.745Z,12.55
2022-08-11T08:25:08.973Z,11.85
2022-08-11T08:27:38.581Z,12.35
2022-08-11T08:30:26.016Z,13.07
2022-08-11T08:32:53.777Z,10.48
2022-08-11T08:35:21.760Z,12.93
2022-08-11T08:37:51.244Z,11.93
2022-08-11T08:40:18.560Z,11.70
2022-08-11T08:42:54.978Z,11.18
2022-08-11T08:45:22.418Z,11.13
2022-08-11T08:47:58.595Z,11.63
2022-08-11T08:50:48.539Z,12.18
2022-08-11T08:53:23.254Z,11.93
2022-08-11T08:55:51.278Z,10.98
2022-08-11T08:58:20.565Z,12.88
2022-08-11T09:00:51.721Z,12.05
2022-08-11T09:06:07.344Z,11.00
2022-08-11T09:08:35.285Z,12.57
2022-08-11T09:11:24.291Z,12.88
2022-08-11T09:14:04.857Z,13.30
2022-08-11T09:16:32.581Z,13.57
2022-08-11T09:19:00.959Z,13.35
2022-08-11T09:21:46.267Z,13.05
2022-08-11T09:24:33.261Z,12.27
2022-08-11T09:27:06.500Z,14.27
2022-08-11T09:29:33.957Z,12.90
2022-08-11T09:32:01.337Z,12.70
2022-08-11T09:34:29.033Z,17.58
2022-08-11T09:37:28.414Z,13.82
2022-08-11T09:40:20.851Z,13.02
2022-08-11T09:43:06.904Z,14.70
2022-08-11T09:48:07.917Z,12.52
2022-08-11T09:50:35.995Z,11.50
2022-08-11T09:53:36.218Z,13.10
2022-08-11T09:55:54.107Z,11.57
2022-08-11T09:58:33.878Z,12.15
2022-08-11T10:01:27.443Z,10.40
2022-08-11T10:04:02.707Z,11.38
2022-08-11T10:06:54.101Z,10.27
2022-08-11T10:09:25.172Z,10.77
2022-08-11T10:11:58.558Z,10.93
2022-08-11T10:14:46.301Z,9.48
2022-08-11T10:17:14.780Z,10.57
2022-08-11T10:19:45.490Z,10.02
2022-08-11T10:22:50.721Z,9.05
2022-08-11T10:25:36.630Z,9.45
2022-08-11T10:31:13.742Z,10.02
2022-08-11T10:34:00.763Z,9.10
2022-08-11T10:36:30.181Z,8.82
2022-08-11T10:38:58.444Z,9.48
2022-08-11T10:42:03.389Z,9.35
2022-08-11T10:44:40.052Z,9.63
2022-08-11T10:47:26.278Z,10.27
2022-08-11T10:50:12.447Z,10.20
2022-08-11T10:52:58.810Z,9.75
2022-08-11T10:55:45.158Z,10.85
2022-08-11T10:58:31.285Z,10.80
2022-08-11T11:01:00.625Z,10.70
2022-08-11T11:03:29.917Z,11.00
2022-08-11T11:06:28.148Z,11.30
2022-08-11T11:09:04.605Z,11.68
2022-08-11T11:11:55.818Z,10.88
2022-08-11T11:14:46.756Z,11.48
2022-08-11T11:17:26.482Z,11.13
2022-08-11T11:19:58.337Z,10.88
2022-08-11T11:22:40.572Z,11.20
2022-08-11T11:25:21.194Z,10.25
2022-08-11T11:28:09.173Z,9.93
2022-08-11T11:30:45.893Z,9.55
2022-08-11T11:33:28.075Z,11.25
2022-08-11T11:36:06.657Z,10.00
2022-08-11T11:38:33.614Z,10.90
2022-08-11T11:41:19.050Z,9.57
2022-08-11T11:43:46.835Z,12.15
2022-08-11T11:46:13.989Z,10.57
2022-08-11T11:48:41.569Z,9.93
2022-08-11T11:51:10.006Z,9.15
2022-08-11T11:53:36.751Z,10.27
2022-08-11T11:56:04.288Z,12.27
2022-08-11T11:58:49.981Z,10.35
2022-08-11T12:01:17.150Z,10.43
2022-08-11T12:03:46.788Z,10.48
2022-08-11T12:06:14.593Z,9.10
2022-08-11T12:08:43.021Z,11.07
2022-08-11T12:11:30.666Z,11.32
2022-08-11T12:14:03.058Z,9.65
2022-08-11T12:16:36.380Z,10.30
2022-08-11T12:19:07.062Z,9.40
2022-08-11T12:21:36.719Z,8.63
2022-08-11T12:24:22.997Z,12.07
2022-08-11T12:27:17.847Z,8.70
2022-08-11T12:29:55.376Z,9.85
2022-08-11T12:32:26.052Z,9.15
2022-08-11T12:34:53.663Z,9.52
2022-08-11T12:37:24.597Z,9.65
2022-08-11T12:40:43.228Z,8.93
2022-08-11T12:43:38.083Z,8.55
2022-08-11T12:46:19.206Z,8.23
2022-08-11T12:49:06.751Z,8.77
2022-08-11T12:52:11.803Z,10.13
2022-08-11T12:55:38.667Z,8.00
2022-08-11T12:58:18.827Z,8.38
2022-08-11T13:01:05.077Z,8.02
2022-08-11T13:03:56.671Z,7.57
2022-08-11T13:06:24.734Z,7.68
2022-08-11T13:08:52.398Z,9.30
2022-08-11T13:11:55.701Z,8.02
2022-08-11T13:14:25.783Z,7.38
2022-08-11T13:17:11.900Z,8.45
2022-08-11T13:19:42.632Z,8.82
2022-08-11T13:22:11.918Z,8.13
2022-08-11T13:24:40.077Z,8.38
2022-08-11T13:27:07.557Z,8.20
2022-08-11T13:29:36.024Z,9.13
2022-08-11T13:32:03.497Z,8.52
2022-08-11T13:34:34.322Z,7.70
2022-08-11T13:37:05.157Z,8.43
2022-08-11T13:39:34.521Z,9.60
2022-08-11T13:42:03.671Z,8.77
2022-08-11T13:44:33.480Z,9.60
2022-08-11T13:47:04.216Z,9.75
2022-08-11T13:49:32.864Z,8.05
2022-08-11T13:51:59.842Z,8.63
2022-08-11T13:54:30.141Z,7.97
2022-08-11T13:57:00.620Z,9.60
2022-08-11T13:59:30.100Z,9.35
2022-08-11T14:02:21.496Z,8.70
2022-08-11T14:05:01.579Z,10.15
2022-08-11T14:07:35.936Z,10.30
2022-08-11T14:10:06.712Z,11.30
2022-08-11T14:12:55.824Z,9.95
2022-08-11T14:15:26.622Z,10.60
2022-08-11T14:18:21.642Z,10.35
2022-08-11T14:21:13.816Z,11.02
2022-08-11T14:23:50.312Z,9.98
2022-08-11T14:26:26.248Z,11.70
2022-08-11T14:29:09.759Z,10.82
2022-08-11T14:31:40.535Z,11.40
2022-08-11T14:34:12.618Z,12.15
2022-08-11T14:36:43.293Z,11.77
2022-08-11T14:39:18.232Z,11.95
2022-08-11T14:42:16.979Z,10.98
2022-08-11T14:45:11.544Z,11.52
2022-08-11T14:47:41.150Z,10.82
2022-08-11T14:50:14.064Z,12.02
2022-08-11T14:52:50.051Z,10.90
2022-08-11T14:55:36.477Z,12.60
2022-08-11T14:58:04.263Z,12.23
2022-08-11T15:00:32.568Z,11.75
2022-08-11T15:03:13.483Z,11.05
2022-08-11T15:05:57.753Z,12.65
2022-08-11T15:08:55.269Z,11.30
2022-08-11T15:11:43.459Z,11.98
2022-08-11T15:14:11.820Z,12.68
2022-08-11T15:17:03.815Z,13.00
2022-08-11T15:19:36.918Z,12.15
2022-08-11T15:22:28.725Z,12.57
2022-08-11T15:24:58.041Z,11.82
2022-08-11T15:27:45.009Z,12.80
2022-08-11T15:30:50.207Z,12.52
2022-08-11T15:33:38.533Z,11.07
2022-08-11T15:36:27.579Z,13.27
2022-08-11T15:38:59.718Z,11.98
2022-08-11T15:42:20.320Z,12.60
2022-08-11T15:45:13.401Z,14.02
2022-08-11T15:47:44.552Z,12.52
2022-08-11T15:50:19.890Z,12.82
2022-08-11T15:52:53.687Z,12.75
2022-08-11T15:55:23.643Z,13.85
2022-08-11T15:58:10.546Z,12.52
2022-08-11T16:01:02.025Z,13.25
2022-08-11T16:04:07.208Z,13.07
2022-08-11T16:06:47.435Z,13.48
2022-08-11T16:09:20.285Z,13.55
2022-08-11T16:11:49.965Z,13.93
2022-08-11T16:14:37.405Z,15.00
2022-08-11T16:17:07.147Z,13.23
2022-08-11T16:19:36.557Z,14.05
2022-08-11T16:22:08.118Z,14.25
2022-08-11T16:27:04.749Z,13.60
2022-08-11T16:27:37.252Z,15.23
2022-08-11T16:30:05.917Z,16.67
2022-08-11T16:32:34.040Z,13.27
2022-08-11T16:35:22.547Z,14.07
2022-08-11T16:38:09.346Z,13.90
2022-08-11T16:40:37.368Z,14.10
2022-08-11T16:43:26.393Z,13.43
2022-08-11T16:46:13.363Z,14.32
2022-08-11T16:48:42.707Z,15.32
2022-08-11T16:51:12.647Z,14.35
2022-08-11T16:54:04.330Z,14.32
2022-08-11T16:56:41.864Z,14.38
2022-08-11T16:59:19.599Z,14.15
2022-08-11T17:01:53.923Z,14.25
2022-08-11T17:04:54.323Z,15.20
2022-08-11T17:07:43.272Z,15.00
2022-08-11T17:11:07.092Z,13.70
2022-08-11T17:13:47.368Z,15.43
2022-08-11T17:16:20.953Z,15.07
2022-08-11T17:18:57.321Z,15.20
2022-08-11T17:21:29.911Z,14.98
2022-08-11T17:24:08.768Z,16.08
2022-08-11T17:26:59.166Z,14.88
2022-08-11T17:29:53.680Z,15.75
2022-08-11T17:33:22.985Z,15.60
2022-08-11T17:35:49.609Z,15.05
2022-08-11T17:38:19.667Z,15.10
2022-08-11T17:41:10.284Z,14.82
2022-08-11T17:44:04.911Z,14.77
2022-08-11T17:46:51.337Z,13.43
2022-08-11T17:49:20.396Z,14.93
2022-08-11T17:52:07.636Z,14.13
2022-08-11T17:54:55.009Z,12.85
2022-08-11T17:57:47.445Z,13.98
2022-08-11T18:00:15.030Z,16.00
2022-08-11T18:03:02.842Z,15.00
2022-08-11T18:05:32.016Z,15.95
2022-08-11T18:08:19.542Z,15.80
2022-08-11T18:11:06.782Z,16.60
2022-08-11T18:13:55.807Z,15.50
2022-08-11T18:16:41.202Z,13.82
2022-08-11T18:19:27.453Z,14.73
2022-08-11T18:22:41.135Z,14.77
2022-08-11T18:25:31.796Z,15.85
2022-08-11T18:28:19.609Z,14.93
2022-08-11T18:31:12.964Z,15.90
2022-08-11T18:34:07.638Z,13.68
2022-08-11T18:37:07.165Z,15.02
2022-08-11T18:40:00.930Z,14.48
2022-08-11T18:42:49.980Z,13.85
2022-08-11T18:45:41.660Z,15.52
2022-08-11T18:48:37.150Z,13.60
2022-08-11T18:51:31.465Z,16.35
2022-08-11T18:54:27.774Z,15.85
2022-08-11T18:57:16.912Z,16.58
2022-08-11T19:00:04.458Z,14.68
2022-08-11T19:02:51.517Z,15.85
2022-08-11T19:06:31.816Z,15.63
2022-08-11T19:08:52.835Z,14.32
2022-08-11T19:11:42.847Z,15.93
2022-08-11T19:14:34.269Z,14.50
2022-08-11T19:17:44.526Z,13.80
2022-08-11T19:20:41.122Z,15.20
2022-08-11T19:23:29.433Z,15.55
2022-08-11T19:26:17.385Z,14.48
2022-08-11T19:29:06.399Z,13.85
2022-08-11T19:31:55.554Z,16.23
2022-08-11T19:34:43.132Z,16.58
2022-08-11T19:37:31.034Z,15.63
2022-08-11T19:40:35.189Z,15.52
2022-08-11T19:43:26.048Z,14.13
2022-08-11T19:46:16.098Z,15.55
2022-08-11T19:49:04.306Z,16.70
2022-08-11T19:51:53.789Z,16.38
2022-08-11T19:54:44.554Z,16.25
2022-08-11T19:57:34.549Z,16.35
2022-08-11T20:00:29.992Z,16.40
2022-08-11T20:03:16.527Z,15.85
2022-08-11T20:06:02.592Z,17.60
2022-08-11T20:08:51.523Z,15.52
2022-08-11T20:11:40.698Z,15.38
2022-08-11T20:14:28.657Z,15.52
2022-08-11T20:17:16.061Z,13.70
2022-08-11T20:20:02.738Z,16.70
2022-08-11T20:22:49.616Z,14.82
2022-08-11T20:25:36.973Z,14.18
2022-08-11T20:28:24.932Z,14.85
2022-08-11T20:31:12.365Z,16.17
2022-08-11T20:33:59.206Z,14.82
2022-08-11T20:36:47.584Z,16.27
2022-08-11T20:39:41.480Z,16.05
2022-08-11T20:42:30.411Z,14.82
2022-08-11T20:45:18.764Z,14.57
2022-08-11T20:48:14.730Z,15.65
2022-08-11T20:51:06.473Z,13.73
2022-08-11T20:53:56.506Z,15.63
2022-08-11T20:56:44.501Z,14.63
2022-08-11T20:59:33.358Z,13.35
2022-08-11T21:02:30.738Z,14.13
2022-08-11T21:05:19.602Z,15.65
2022-08-11T21:08:25.475Z,16.20
2022-08-11T21:11:12.572Z,14.45
2022-08-11T21:14:01.328Z,15.23
2022-08-11T21:16:53.836Z,15.18
2022-08-11T21:19:55.046Z,12.45
2022-08-11T21:22:59.455Z,15.27
2022-08-11T21:26:13.514Z,16.17
2022-08-11T21:29:01.086Z,15.10
2022-08-11T21:31:49.055Z,15.20
2022-08-11T21:34:39.915Z,16.25
2022-08-11T21:37:27.615Z,15.30
2022-08-11T21:40:16.976Z,15.30
2022-08-11T21:43:04.821Z,16.48
2022-08-11T21:45:52.617Z,15.52
2022-08-11T21:48:38.974Z,14.73
2022-08-11T21:51:24.675Z,15.77
2022-08-11T21:54:10.972Z,15.38
2022-08-11T21:56:57.941Z,16.23
2022-08-11T21:59:56.394Z,15.75
2022-08-11T22:02:43.344Z,16.02
2022-08-11T22:05:36.270Z,15.18
2022-08-11T22:08:22.250Z,15.90
2022-08-11T22:11:07.830Z,15.77
2022-08-11T22:14:01.206Z,16.15
2022-08-11T22:16:53.067Z,19.60
2022-08-11T22:19:39.864Z,15.98
2022-08-11T22:22:25.774Z,17.73
2022-08-11T22:25:16.485Z,17.65
2022-08-11T22:28:03.903Z,13.75
2022-08-11T22:30:49.428Z,14.90
2022-08-11T22:33:36.498Z,15.75
2022-08-11T22:36:27.857Z,15.05
2022-08-11T22:39:16.777Z,15.48
2022-08-11T22:42:02.003Z,16.35
2022-08-11T22:44:47.527Z,18.13
2022-08-11T22:47:36.417Z,17.10
2022-08-11T22:50:26.636Z,16.70
2022-08-11T22:53:13.819Z,15.70
2022-08-11T22:55:59.752Z,14.73
2022-08-11T23:01:35.440Z,14.93
2022-08-11T23:04:21.718Z,15.07
2022-08-11T23:07:08.587Z,17.13
2022-08-11T23:09:54.466Z,16.83
2022-08-11T23:15:25.679Z,16.38
2022-08-11T23:18:11.269Z,15.82
2022-08-11T23:20:59.396Z,17.92
2022-08-11T23:23:47.682Z,15.55
2022-08-11T23:26:35.044Z,15.63
2022-08-11T23:29:22.053Z,15.40
2022-08-11T23:32:11.607Z,17.35
2022-08-11T23:35:39.564Z,15.68
2022-08-11T23:38:08.706Z,16.63
2022-08-11T23:40:57.130Z,16.27
2022-08-11T23:43:43.450Z,21.60
2022-08-11T23:46:29.255Z,14.85
2022-08-11T23:49:20.058Z,16.30
2022-08-11T23:52:07.454Z,16.45
2022-08-11T23:54:53.998Z,15.50
2022-08-11T23:57:47.906Z,16.88
